sensor_id;sensor_type;location;lat;lon;timestamp;temperature;humidity
11246;DHT22;59870;50.106;8.580;2022-12-18T00:01:28;-2.80;91.70
11246;DHT22;59870;50.106;8.580;2022-12-18T00:03:57;-2.80;91.80
11246;DHT22;59870;50.106;8.580;2022-12-18T00:06:26;-2.80;91.70
11246;DHT22;59870;50.106;8.580;2022-12-18T00:08:56;-2.70;91.60
11246;DHT22;59870;50.106;8.580;2022-12-18T00:11:26;-2.60;91.60
11246;DHT22;59870;50.106;8.580;2022-12-18T00:13:56;-2.80;91.50
11246;DHT22;59870;50.106;8.580;2022-12-18T00:16:25;-2.90;91.30
11246;DHT22;59870;50.106;8.580;2022-12-18T00:18:55;-2.90;91.40
11246;DHT22;59870;50.106;8.580;2022-12-18T00:21:25;-2.90;91.40
11246;DHT22;59870;50.106;8.580;2022-12-18T00:23:54;-2.70;91.50
11246;DHT22;59870;50.106;8.580;2022-12-18T00:26:24;-2.40;91.60
11246;DHT22;59870;50.106;8.580;2022-12-18T00:29:05;-2.90;91.30
11246;DHT22;59870;50.106;8.580;2022-12-18T00:31:33;-2.90;91.30
11246;DHT22;59870;50.106;8.580;2022-12-18T00:34:01;-2.50;91.40
11246;DHT22;59870;50.106;8.580;2022-12-18T00:36:32;-2.90;91.10
11246;DHT22;59870;50.106;8.580;2022-12-18T00:39:04;-2.80;91.00
11246;DHT22;59870;50.106;8.580;2022-12-18T00:41:32;-2.80;90.80
11246;DHT22;59870;50.106;8.580;2022-12-18T00:44:19;-2.80;90.60
11246;DHT22;59870;50.106;8.580;2022-12-18T00:46:47;-2.90;90.50
11246;DHT22;59870;50.106;8.580;2022-12-18T00:49:17;-2.90;90.50
11246;DHT22;59870;50.106;8.580;2022-12-18T00:51:46;-3.00;90.40
11246;DHT22;59870;50.106;8.580;2022-12-18T00:54:13;-3.00;90.30
11246;DHT22;59870;50.106;8.580;2022-12-18T00:56:40;-2.90;90.40
11246;DHT22;59870;50.106;8.580;2022-12-18T00:59:17;-2.80;90.50
11246;DHT22;59870;50.106;8.580;2022-12-18T01:01:45;-3.20;90.20
11246;DHT22;59870;50.106;8.580;2022-12-18T01:04:14;-3.20;90.10
11246;DHT22;59870;50.106;8.580;2022-12-18T01:06:45;-3.20;90.10
11246;DHT22;59870;50.106;8.580;2022-12-18T01:09:12;-3.20;90.10
11246;DHT22;59870;50.106;8.580;2022-12-18T01:11:40;-3.40;90.00
11246;DHT22;59870;50.106;8.580;2022-12-18T01:14:07;-3.40;90.10
11246;DHT22;59870;50.106;8.580;2022-12-18T01:16:37;-2.90;90.40
11246;DHT22;59870;50.106;8.580;2022-12-18T01:19:04;-3.40;90.10
11246;DHT22;59870;50.106;8.580;2022-12-18T01:21:33;-3.00;90.30
11246;DHT22;59870;50.106;8.580;2022-12-18T01:24:04;-3.70;90.10
11246;DHT22;59870;50.106;8.580;2022-12-18T01:26:31;-3.60;90.10
11246;DHT22;59870;50.106;8.580;2022-12-18T01:28:59;-3.70;90.10
11246;DHT22;59870;50.106;8.580;2022-12-18T01:31:29;-3.70;90.10
11246;DHT22;59870;50.106;8.580;2022-12-18T01:33:57;-3.20;90.40
11246;DHT22;59870;50.106;8.580;2022-12-18T01:36:32;-3.80;90.20
11246;DHT22;59870;50.106;8.580;2022-12-18T01:39:03;-3.80;90.20
11246;DHT22;59870;50.106;8.580;2022-12-18T01:41:33;-3.50;90.40
11246;DHT22;59870;50.106;8.580;2022-12-18T01:47:28;-3.80;90.30
11246;DHT22;59870;50.106;8.580;2022-12-18T01:49:57;-3.90;90.20
11246;DHT22;59870;50.106;8.580;2022-12-18T01:52:31;-3.30;90.50
11246;DHT22;59870;50.106;8.580;2022-12-18T01:55:00;-3.90;90.30
11246;DHT22;59870;50.106;8.580;2022-12-18T01:57:29;-3.30;90.50
11246;DHT22;59870;50.106;8.580;2022-12-18T02:00:00;-4.00;90.30
11246;DHT22;59870;50.106;8.580;2022-12-18T02:02:41;-4.00;90.40
11246;DHT22;59870;50.106;8.580;2022-12-18T02:05:10;-4.00;90.40
11246;DHT22;59870;50.106;8.580;2022-12-18T02:11:05;-3.80;90.50
11246;DHT22;59870;50.106;8.580;2022-12-18T02:13:53;-4.00;90.40
11246;DHT22;59870;50.106;8.580;2022-12-18T02:19:39;-4.00;90.20
11246;DHT22;59870;50.106;8.580;2022-12-18T02:24:51;-4.00;90.20
11246;DHT22;59870;50.106;8.580;2022-12-18T02:27:22;-4.00;90.30
11246;DHT22;59870;50.106;8.580;2022-12-18T02:29:55;-4.00;90.20
11246;DHT22;59870;50.106;8.580;2022-12-18T02:32:38;-4.00;90.20
11246;DHT22;59870;50.106;8.580;2022-12-18T02:35:13;-4.10;90.10
11246;DHT22;59870;50.106;8.580;2022-12-18T02:37:43;-3.60;90.40
11246;DHT22;59870;50.106;8.580;2022-12-18T02:40:13;-4.10;90.20
11246;DHT22;59870;50.106;8.580;2022-12-18T02:42:42;-4.10;90.20
11246;DHT22;59870;50.106;8.580;2022-12-18T02:45:12;-4.10;90.30
11246;DHT22;59870;50.106;8.580;2022-12-18T02:47:43;-4.10;90.40
11246;DHT22;59870;50.106;8.580;2022-12-18T02:50:22;-4.00;90.40
11246;DHT22;59870;50.106;8.580;2022-12-18T02:53:17;-4.20;90.60
11246;DHT22;59870;50.106;8.580;2022-12-18T02:56:07;-4.20;90.50
11246;DHT22;59870;50.106;8.580;2022-12-18T03:01:52;-4.20;90.70
11246;DHT22;59870;50.106;8.580;2022-12-18T03:04:35;-3.90;90.90
11246;DHT22;59870;50.106;8.580;2022-12-18T03:07:09;-4.20;90.80
11246;DHT22;59870;50.106;8.580;2022-12-18T03:09:43;-4.20;90.90
11246;DHT22;59870;50.106;8.580;2022-12-18T03:12:35;-4.30;90.90
11246;DHT22;59870;50.106;8.580;2022-12-18T03:15:12;-4.30;90.90
11246;DHT22;59870;50.106;8.580;2022-12-18T03:17:52;-4.30;90.90
11246;DHT22;59870;50.106;8.580;2022-12-18T03:20:27;-4.20;91.00
11246;DHT22;59870;50.106;8.580;2022-12-18T03:23:02;-3.80;91.20
11246;DHT22;59870;50.106;8.580;2022-12-18T03:25:31;-4.20;90.40
11246;DHT22;59870;50.106;8.580;2022-12-18T03:28:02;-4.30;91.00
11246;DHT22;59870;50.106;8.580;2022-12-18T03:30:33;-4.30;91.40
11246;DHT22;59870;50.106;8.580;2022-12-18T03:33:12;-4.00;91.20
11246;DHT22;59870;50.106;8.580;2022-12-18T03:35:44;-4.00;91.20
11246;DHT22;59870;50.106;8.580;2022-12-18T03:38:12;-4.30;91.00
11246;DHT22;59870;50.106;8.580;2022-12-18T03:40:48;-4.30;91.00
11246;DHT22;59870;50.106;8.580;2022-12-18T03:43:42;-4.00;91.10
11246;DHT22;59870;50.106;8.580;2022-12-18T03:46:28;-4.20;91.00
11246;DHT22;59870;50.106;8.580;2022-12-18T03:49:08;-4.20;90.90
11246;DHT22;59870;50.106;8.580;2022-12-18T03:51:40;-4.20;90.90
11246;DHT22;59870;50.106;8.580;2022-12-18T03:54:09;-4.00;90.90
11246;DHT22;59870;50.106;8.580;2022-12-18T03:56:46;-4.20;90.80
11246;DHT22;59870;50.106;8.580;2022-12-18T03:59:16;-4.20;90.80
11246;DHT22;59870;50.106;8.580;2022-12-18T04:01:48;-3.90;90.30
11246;DHT22;59870;50.106;8.580;2022-12-18T04:04:18;-4.00;90.80
11246;DHT22;59870;50.106;8.580;2022-12-18T04:06:48;-3.70;90.90
11246;DHT22;59870;50.106;8.580;2022-12-18T04:09:19;-4.20;90.70
11246;DHT22;59870;50.106;8.580;2022-12-18T04:11:47;-4.20;90.70
11246;DHT22;59870;50.106;8.580;2022-12-18T04:14:16;-4.20;90.70
11246;DHT22;59870;50.106;8.580;2022-12-18T04:16:46;-4.10;90.70
11246;DHT22;59870;50.106;8.580;2022-12-18T04:19:16;-4.20;90.60
11246;DHT22;59870;50.106;8.580;2022-12-18T04:21:45;-4.20;90.70
11246;DHT22;59870;50.106;8.580;2022-12-18T04:24:14;-4.10;90.90
11246;DHT22;59870;50.106;8.580;2022-12-18T04:26:50;-4.20;90.90
11246;DHT22;59870;50.106;8.580;2022-12-18T04:29:23;-4.10;91.00
11246;DHT22;59870;50.106;8.580;2022-12-18T04:31:50;-4.20;90.90
11246;DHT22;59870;50.106;8.580;2022-12-18T04:34:18;-3.60;91.20
11246;DHT22;59870;50.106;8.580;2022-12-18T04:36:50;-4.20;90.90
11246;DHT22;59870;50.106;8.580;2022-12-18T04:39:17;-4.20;91.00
11246;DHT22;59870;50.106;8.580;2022-12-18T04:41:46;-4.20;90.90
11246;DHT22;59870;50.106;8.580;2022-12-18T04:44:13;-4.10;91.00
11246;DHT22;59870;50.106;8.580;2022-12-18T04:46:41;-4.50;90.80
11246;DHT22;59870;50.106;8.580;2022-12-18T04:49:09;-4.20;91.00
11246;DHT22;59870;50.106;8.580;2022-12-18T04:51:37;-3.90;91.10
11246;DHT22;59870;50.106;8.580;2022-12-18T04:54:04;-4.00;91.00
11246;DHT22;59870;50.106;8.580;2022-12-18T04:56:32;-4.20;90.90
11246;DHT22;59870;50.106;8.580;2022-12-18T04:59:00;-4.20;90.90
11246;DHT22;59870;50.106;8.580;2022-12-18T05:01:27;-4.20;90.90
11246;DHT22;59870;50.106;8.580;2022-12-18T05:04:01;-3.80;91.00
11246;DHT22;59870;50.106;8.580;2022-12-18T05:06:29;-3.90;90.90
11246;DHT22;59870;50.106;8.580;2022-12-18T05:08:56;-4.20;90.70
11246;DHT22;59870;50.106;8.580;2022-12-18T05:11:24;-4.10;90.70
11246;DHT22;59870;50.106;8.580;2022-12-18T05:13:51;-4.20;90.70
11246;DHT22;59870;50.106;8.580;2022-12-18T05:16:18;-4.20;90.70
11246;DHT22;59870;50.106;8.580;2022-12-18T05:18:46;-4.00;90.70
11246;DHT22;59870;50.106;8.580;2022-12-18T05:21:14;-4.30;90.60
11246;DHT22;59870;50.106;8.580;2022-12-18T05:23:41;-4.20;90.60
11246;DHT22;59870;50.106;8.580;2022-12-18T05:26:15;-4.20;90.50
11246;DHT22;59870;50.106;8.580;2022-12-18T05:28:43;-4.10;90.60
11246;DHT22;59870;50.106;8.580;2022-12-18T05:31:11;-4.20;90.50
11246;DHT22;59870;50.106;8.580;2022-12-18T05:33:39;-4.20;90.50
11246;DHT22;59870;50.106;8.580;2022-12-18T05:36:08;-4.00;90.50
11246;DHT22;59870;50.106;8.580;2022-12-18T05:38:37;-4.10;90.50
11246;DHT22;59870;50.106;8.580;2022-12-18T05:41:06;-4.00;90.50
11246;DHT22;59870;50.106;8.580;2022-12-18T05:43:35;-4.30;90.40
11246;DHT22;59870;50.106;8.580;2022-12-18T05:46:05;-4.20;90.40
11246;DHT22;59870;50.106;8.580;2022-12-18T05:48:33;-4.20;90.50
11246;DHT22;59870;50.106;8.580;2022-12-18T05:51:05;-4.20;90.40
11246;DHT22;59870;50.106;8.580;2022-12-18T05:53:33;-4.40;90.30
11246;DHT22;59870;50.106;8.580;2022-12-18T05:56:04;-4.30;90.40
11246;DHT22;59870;50.106;8.580;2022-12-18T05:58:32;-4.30;90.40
11246;DHT22;59870;50.106;8.580;2022-12-18T06:01:15;-4.30;90.30
11246;DHT22;59870;50.106;8.580;2022-12-18T06:03:43;-3.90;90.50
11246;DHT22;59870;50.106;8.580;2022-12-18T06:06:19;-4.30;90.40
11246;DHT22;59870;50.106;8.580;2022-12-18T06:08:47;-4.40;90.30
11246;DHT22;59870;50.106;8.580;2022-12-18T06:11:21;-4.40;90.30
11246;DHT22;59870;50.106;8.580;2022-12-18T06:13:55;-4.30;90.30
11246;DHT22;59870;50.106;8.580;2022-12-18T06:16:27;-4.30;90.30
11246;DHT22;59870;50.106;8.580;2022-12-18T06:18:58;-4.40;90.20
11246;DHT22;59870;50.106;8.580;2022-12-18T06:21:27;-4.30;90.20
11246;DHT22;59870;50.106;8.580;2022-12-18T06:23:55;-4.40;90.10
11246;DHT22;59870;50.106;8.580;2022-12-18T06:26:24;-3.80;90.30
11246;DHT22;59870;50.106;8.580;2022-12-18T06:28:55;-4.40;90.10
11246;DHT22;59870;50.106;8.580;2022-12-18T06:31:24;-4.40;90.00
11246;DHT22;59870;50.106;8.580;2022-12-18T06:33:51;-4.40;90.00
11246;DHT22;59870;50.106;8.580;2022-12-18T06:36:19;-4.00;90.20
11246;DHT22;59870;50.106;8.580;2022-12-18T06:38:47;-4.30;90.10
11246;DHT22;59870;50.106;8.580;2022-12-18T06:41:17;-4.40;89.80
11246;DHT22;59870;50.106;8.580;2022-12-18T06:43:44;-4.40;89.90
11246;DHT22;59870;50.106;8.580;2022-12-18T06:46:12;-4.40;89.90
11246;DHT22;59870;50.106;8.580;2022-12-18T06:48:40;-4.30;90.00
11246;DHT22;59870;50.106;8.580;2022-12-18T06:51:07;-4.50;89.80
11246;DHT22;59870;50.106;8.580;2022-12-18T06:53:35;-4.50;90.30
11246;DHT22;59870;50.106;8.580;2022-12-18T06:56:06;-4.40;90.00
11246;DHT22;59870;50.106;8.580;2022-12-18T06:58:38;-4.50;90.00
11246;DHT22;59870;50.106;8.580;2022-12-18T07:01:08;-4.50;90.00
11246;DHT22;59870;50.106;8.580;2022-12-18T07:03:37;-4.50;89.80
11246;DHT22;59870;50.106;8.580;2022-12-18T07:06:05;-4.00;90.10
11246;DHT22;59870;50.106;8.580;2022-12-18T07:08:33;-4.50;89.80
11246;DHT22;59870;50.106;8.580;2022-12-18T07:11:03;-4.50;89.90
11246;DHT22;59870;50.106;8.580;2022-12-18T07:13:31;-4.60;89.80
11246;DHT22;59870;50.106;8.580;2022-12-18T07:16:16;-4.50;89.80
11246;DHT22;59870;50.106;8.580;2022-12-18T07:18:51;-4.50;89.60
11246;DHT22;59870;50.106;8.580;2022-12-18T07:21:20;-4.50;89.60
11246;DHT22;59870;50.106;8.580;2022-12-18T07:23:48;-4.40;89.50
11246;DHT22;59870;50.106;8.580;2022-12-18T07:26:18;-4.50;89.50
11246;DHT22;59870;50.106;8.580;2022-12-18T07:28:45;-4.30;89.70
11246;DHT22;59870;50.106;8.580;2022-12-18T07:31:16;-4.50;89.90
11246;DHT22;59870;50.106;8.580;2022-12-18T07:33:44;-4.20;90.00
11246;DHT22;59870;50.106;8.580;2022-12-18T07:36:12;-4.30;89.80
11246;DHT22;59870;50.106;8.580;2022-12-18T07:38:40;-4.50;89.70
11246;DHT22;59870;50.106;8.580;2022-12-18T07:41:12;-4.60;89.60
11246;DHT22;59870;50.106;8.580;2022-12-18T07:43:41;-4.00;90.00
11246;DHT22;59870;50.106;8.580;2022-12-18T07:46:10;-4.40;89.70
11246;DHT22;59870;50.106;8.580;2022-12-18T07:48:43;-4.40;89.80
11246;DHT22;59870;50.106;8.580;2022-12-18T07:51:17;-4.40;89.60
11246;DHT22;59870;50.106;8.580;2022-12-18T07:53:45;-4.40;89.60
11246;DHT22;59870;50.106;8.580;2022-12-18T07:56:19;-4.10;88.50
11246;DHT22;59870;50.106;8.580;2022-12-18T07:58:57;-4.30;89.50
11246;DHT22;59870;50.106;8.580;2022-12-18T08:01:25;-4.20;89.70
11246;DHT22;59870;50.106;8.580;2022-12-18T08:03:53;-3.70;90.10
11246;DHT22;59870;50.106;8.580;2022-12-18T08:06:20;-4.30;89.80
11246;DHT22;59870;50.106;8.580;2022-12-18T08:08:55;-4.20;89.80
11246;DHT22;59870;50.106;8.580;2022-12-18T08:11:24;-4.30;90.20
11246;DHT22;59870;50.106;8.580;2022-12-18T08:13:55;-4.30;90.00
11246;DHT22;59870;50.106;8.580;2022-12-18T08:16:22;-4.20;90.10
11246;DHT22;59870;50.106;8.580;2022-12-18T08:18:52;-4.30;90.10
11246;DHT22;59870;50.106;8.580;2022-12-18T08:21:22;-4.30;90.20
11246;DHT22;59870;50.106;8.580;2022-12-18T08:23:52;-4.10;90.30
11246;DHT22;59870;50.106;8.580;2022-12-18T08:26:20;-4.00;90.40
11246;DHT22;59870;50.106;8.580;2022-12-18T08:28:48;-4.00;90.40
11246;DHT22;59870;50.106;8.580;2022-12-18T08:31:18;-3.90;90.60
11246;DHT22;59870;50.106;8.580;2022-12-18T08:33:48;-3.90;90.70
11246;DHT22;59870;50.106;8.580;2022-12-18T08:36:16;-3.80;90.80
11246;DHT22;59870;50.106;8.580;2022-12-18T08:38:44;-3.70;91.20
11246;DHT22;59870;50.106;8.580;2022-12-18T08:41:14;-3.60;91.00
11246;DHT22;59870;50.106;8.580;2022-12-18T08:43:42;-3.40;91.20
11246;DHT22;59870;50.106;8.580;2022-12-18T08:46:34;-3.30;91.10
11246;DHT22;59870;50.106;8.580;2022-12-18T08:49:03;-3.00;91.40
11246;DHT22;59870;50.106;8.580;2022-12-18T08:51:32;-2.80;91.60
11246;DHT22;59870;50.106;8.580;2022-12-18T08:54:01;-2.60;91.50
11246;DHT22;59870;50.106;8.580;2022-12-18T08:56:30;-2.40;91.30
11246;DHT22;59870;50.106;8.580;2022-12-18T08:58:59;-2.20;91.20
11246;DHT22;59870;50.106;8.580;2022-12-18T09:01:26;-1.90;91.10
11246;DHT22;59870;50.106;8.580;2022-12-18T09:03:54;-1.70;91.00
11246;DHT22;59870;50.106;8.580;2022-12-18T09:06:22;-1.50;90.80
11246;DHT22;59870;50.106;8.580;2022-12-18T09:08:50;-1.30;90.80
11246;DHT22;59870;50.106;8.580;2022-12-18T09:11:24;-1.10;90.70
11246;DHT22;59870;50.106;8.580;2022-12-18T09:13:55;-0.90;90.60
11246;DHT22;59870;50.106;8.580;2022-12-18T09:16:25;-0.60;90.60
11246;DHT22;59870;50.106;8.580;2022-12-18T09:18:59;-0.30;90.50
11246;DHT22;59870;50.106;8.580;2022-12-18T09:27:42;0.10;89.80
11246;DHT22;59870;50.106;8.580;2022-12-18T09:30:29;0.80;89.50
11246;DHT22;59870;50.106;8.580;2022-12-18T09:33:39;1.00;88.90
11246;DHT22;59870;50.106;8.580;2022-12-18T09:36:11;0.70;87.70
11246;DHT22;59870;50.106;8.580;2022-12-18T09:38:39;0.80;88.00
11246;DHT22;59870;50.106;8.580;2022-12-18T09:43:50;1.10;87.60
11246;DHT22;59870;50.106;8.580;2022-12-18T09:46:27;1.10;86.80
11246;DHT22;59870;50.106;8.580;2022-12-18T09:55:28;1.40;86.80
11246;DHT22;59870;50.106;8.580;2022-12-18T09:58:37;1.40;86.40
11246;DHT22;59870;50.106;8.580;2022-12-18T10:01:18;1.50;86.10
11246;DHT22;59870;50.106;8.580;2022-12-18T10:04:07;1.50;86.00
11246;DHT22;59870;50.106;8.580;2022-12-18T10:13:17;1.50;84.10
11246;DHT22;59870;50.106;8.580;2022-12-18T10:16:08;1.40;84.00
11246;DHT22;59870;50.106;8.580;2022-12-18T10:19:33;1.70;86.30
11246;DHT22;59870;50.106;8.580;2022-12-18T10:22:40;1.20;83.50
11246;DHT22;59870;50.106;8.580;2022-12-18T10:25:24;1.10;84.20
11246;DHT22;59870;50.106;8.580;2022-12-18T10:28:10;0.90;84.80
11246;DHT22;59870;50.106;8.580;2022-12-18T10:30:43;1.20;85.90
11246;DHT22;59870;50.106;8.580;2022-12-18T10:33:20;1.20;86.30
11246;DHT22;59870;50.106;8.580;2022-12-18T10:35:54;1.10;85.20
11246;DHT22;59870;50.106;8.580;2022-12-18T10:38:30;1.10;84.80
11246;DHT22;59870;50.106;8.580;2022-12-18T10:43:30;0.80;85.30
11246;DHT22;59870;50.106;8.580;2022-12-18T10:46:50;0.60;85.30
11246;DHT22;59870;50.106;8.580;2022-12-18T10:50:02;0.60;85.80
11246;DHT22;59870;50.106;8.580;2022-12-18T10:52:32;0.50;85.90
11246;DHT22;59870;50.106;8.580;2022-12-18T10:55:18;0.50;85.40
11246;DHT22;59870;50.106;8.580;2022-12-18T11:06:15;0.40;86.50
11246;DHT22;59870;50.106;8.580;2022-12-18T11:09:03;0.40;86.70
11246;DHT22;59870;50.106;8.580;2022-12-18T11:11:39;0.80;87.50
11246;DHT22;59870;50.106;8.580;2022-12-18T11:14:20;0.80;87.00
11246;DHT22;59870;50.106;8.580;2022-12-18T11:16:49;0.50;86.60
11246;DHT22;59870;50.106;8.580;2022-12-18T11:29:08;0.30;87.20
11246;DHT22;59870;50.106;8.580;2022-12-18T11:31:46;0.60;86.70
11246;DHT22;59870;50.106;8.580;2022-12-18T11:34:27;-0.10;85.00
11246;DHT22;59870;50.106;8.580;2022-12-18T11:36:59;0.20;85.60
11246;DHT22;59870;50.106;8.580;2022-12-18T11:39:37;0.00;85.90
11246;DHT22;59870;50.106;8.580;2022-12-18T11:42:18;-0.10;86.80
11246;DHT22;59870;50.106;8.580;2022-12-18T11:44:53;-0.20;87.40
11246;DHT22;59870;50.106;8.580;2022-12-18T11:50:17;0.00;87.00
11246;DHT22;59870;50.106;8.580;2022-12-18T11:52:46;-0.10;86.80
11246;DHT22;59870;50.106;8.580;2022-12-18T12:13:55;-0.20;88.40
11246;DHT22;59870;50.106;8.580;2022-12-18T12:32:45;0.10;87.80
11246;DHT22;59870;50.106;8.580;2022-12-18T12:35:25;0.10;87.70
11246;DHT22;59870;50.106;8.580;2022-12-18T12:38:12;0.10;88.00
11246;DHT22;59870;50.106;8.580;2022-12-18T12:41:02;0.10;88.40
11246;DHT22;59870;50.106;8.580;2022-12-18T12:43:45;0.10;87.80
11246;DHT22;59870;50.106;8.580;2022-12-18T12:46:19;0.40;89.00
11246;DHT22;59870;50.106;8.580;2022-12-18T12:48:56;0.00;89.00
11246;DHT22;59870;50.106;8.580;2022-12-18T12:51:29;0.00;89.00
11246;DHT22;59870;50.106;8.580;2022-12-18T12:54:04;0.10;88.90
11246;DHT22;59870;50.106;8.580;2022-12-18T12:59:52;0.20;89.00
11246;DHT22;59870;50.106;8.580;2022-12-18T13:12:03;0.40;88.40
11246;DHT22;59870;50.106;8.580;2022-12-18T13:14:50;0.30;88.50
11246;DHT22;59870;50.106;8.580;2022-12-18T13:20:02;0.20;88.30
11246;DHT22;59870;50.106;8.580;2022-12-18T13:22:37;0.10;88.70
11246;DHT22;59870;50.106;8.580;2022-12-18T13:25:29;0.00;89.30
11246;DHT22;59870;50.106;8.580;2022-12-18T13:28:07;0.00;89.70
11246;DHT22;59870;50.106;8.580;2022-12-18T13:30:45;0.10;89.60
11246;DHT22;59870;50.106;8.580;2022-12-18T13:40:54;0.30;90.00
11246;DHT22;59870;50.106;8.580;2022-12-18T13:46:22;0.30;90.00
11246;DHT22;59870;50.106;8.580;2022-12-18T13:49:36;0.40;90.00
11246;DHT22;59870;50.106;8.580;2022-12-18T13:52:22;0.40;90.00
11246;DHT22;59870;50.106;8.580;2022-12-18T13:54:59;0.50;89.90
11246;DHT22;59870;50.106;8.580;2022-12-18T13:57:37;0.50;90.00
11246;DHT22;59870;50.106;8.580;2022-12-18T14:02:45;0.60;90.00
11246;DHT22;59870;50.106;8.580;2022-12-18T14:05:27;0.60;89.90
11246;DHT22;59870;50.106;8.580;2022-12-18T14:08:00;0.60;90.00
11246;DHT22;59870;50.106;8.580;2022-12-18T14:10:28;0.70;90.00
11246;DHT22;59870;50.106;8.580;2022-12-18T14:13:23;0.70;89.80
11246;DHT22;59870;50.106;8.580;2022-12-18T14:15:51;0.70;89.90
11246;DHT22;59870;50.106;8.580;2022-12-18T14:18:38;0.70;89.90
11246;DHT22;59870;50.106;8.580;2022-12-18T14:21:30;0.80;90.00
11246;DHT22;59870;50.106;8.580;2022-12-18T14:24:12;0.80;90.00
11246;DHT22;59870;50.106;8.580;2022-12-18T14:26:40;0.90;90.00
11246;DHT22;59870;50.106;8.580;2022-12-18T14:32:13;0.90;89.90
11246;DHT22;59870;50.106;8.580;2022-12-18T14:34:54;0.90;90.00
11246;DHT22;59870;50.106;8.580;2022-12-18T14:37:25;0.90;89.80
11246;DHT22;59870;50.106;8.580;2022-12-18T14:40:00;1.00;90.00
11246;DHT22;59870;50.106;8.580;2022-12-18T14:42:37;1.00;90.00
11246;DHT22;59870;50.106;8.580;2022-12-18T14:48:14;1.00;89.80
11246;DHT22;59870;50.106;8.580;2022-12-18T14:51:14;1.00;89.80
11246;DHT22;59870;50.106;8.580;2022-12-18T14:54:02;1.00;90.00
11246;DHT22;59870;50.106;8.580;2022-12-18T14:56:42;1.00;90.00
11246;DHT22;59870;50.106;8.580;2022-12-18T14:59:16;1.00;90.10
11246;DHT22;59870;50.106;8.580;2022-12-18T15:02:01;0.90;90.10
11246;DHT22;59870;50.106;8.580;2022-12-18T15:04:34;1.00;90.10
11246;DHT22;59870;50.106;8.580;2022-12-18T15:10:03;1.00;90.10
11246;DHT22;59870;50.106;8.580;2022-12-18T15:12:49;1.00;90.20
11246;DHT22;59870;50.106;8.580;2022-12-18T15:25:47;1.00;90.30
11246;DHT22;59870;50.106;8.580;2022-12-18T15:28:23;1.40;90.40
11246;DHT22;59870;50.106;8.580;2022-12-18T15:30:59;1.10;90.30
11246;DHT22;59870;50.106;8.580;2022-12-18T15:33:35;1.00;90.30
11246;DHT22;59870;50.106;8.580;2022-12-18T15:36:09;1.00;90.30
11246;DHT22;59870;50.106;8.580;2022-12-18T15:38:37;1.10;90.30
11246;DHT22;59870;50.106;8.580;2022-12-18T15:41:13;1.10;90.30
11246;DHT22;59870;50.106;8.580;2022-12-18T15:43:48;1.10;90.40
11246;DHT22;59870;50.106;8.580;2022-12-18T15:46:18;1.20;90.40
11246;DHT22;59870;50.106;8.580;2022-12-18T15:48:51;1.20;90.40
11246;DHT22;59870;50.106;8.580;2022-12-18T15:51:33;1.20;90.40
11246;DHT22;59870;50.106;8.580;2022-12-18T15:54:03;1.20;90.40
11246;DHT22;59870;50.106;8.580;2022-12-18T15:56:34;1.20;90.50
11246;DHT22;59870;50.106;8.580;2022-12-18T15:59:20;1.10;90.50
11246;DHT22;59870;50.106;8.580;2022-12-18T16:01:50;1.10;90.50
11246;DHT22;59870;50.106;8.580;2022-12-18T16:04:20;1.10;90.60
11246;DHT22;59870;50.106;8.580;2022-12-18T16:06:48;1.10;90.70
11246;DHT22;59870;50.106;8.580;2022-12-18T16:09:36;1.10;90.70
11246;DHT22;59870;50.106;8.580;2022-12-18T16:12:04;1.20;90.70
11246;DHT22;59870;50.106;8.580;2022-12-18T16:14:32;1.20;90.70
11246;DHT22;59870;50.106;8.580;2022-12-18T16:17:02;1.20;90.70
11246;DHT22;59870;50.106;8.580;2022-12-18T16:19:30;1.10;90.70
11246;DHT22;59870;50.106;8.580;2022-12-18T16:21:59;1.10;90.70
11246;DHT22;59870;50.106;8.580;2022-12-18T16:24:29;1.10;90.70
11246;DHT22;59870;50.106;8.580;2022-12-18T16:26:59;1.10;91.00
11246;DHT22;59870;50.106;8.580;2022-12-18T16:29:28;1.00;90.70
11246;DHT22;59870;50.106;8.580;2022-12-18T16:31:58;1.00;90.70
11246;DHT22;59870;50.106;8.580;2022-12-18T16:34:28;1.00;90.70
11246;DHT22;59870;50.106;8.580;2022-12-18T16:37:04;1.00;90.70
11246;DHT22;59870;50.106;8.580;2022-12-18T16:39:37;1.00;90.60
11246;DHT22;59870;50.106;8.580;2022-12-18T16:42:11;1.00;90.60
11246;DHT22;59870;50.106;8.580;2022-12-18T16:44:42;1.00;90.60
11246;DHT22;59870;50.106;8.580;2022-12-18T16:47:09;1.00;90.70
11246;DHT22;59870;50.106;8.580;2022-12-18T16:49:42;0.90;90.70
11246;DHT22;59870;50.106;8.580;2022-12-18T16:52:12;0.90;90.60
11246;DHT22;59870;50.106;8.580;2022-12-18T16:54:40;0.90;90.70
11246;DHT22;59870;50.106;8.580;2022-12-18T16:57:10;0.90;90.70
11246;DHT22;59870;50.106;8.580;2022-12-18T16:59:39;0.90;90.70
11246;DHT22;59870;50.106;8.580;2022-12-18T17:02:13;1.30;90.80
11246;DHT22;59870;50.106;8.580;2022-12-18T17:04:44;0.90;90.80
11246;DHT22;59870;50.106;8.580;2022-12-18T17:07:13;0.40;90.40
11246;DHT22;59870;50.106;8.580;2022-12-18T17:09:41;0.90;90.80
11246;DHT22;59870;50.106;8.580;2022-12-18T17:12:09;0.40;90.40
11246;DHT22;59870;50.106;8.580;2022-12-18T17:14:37;0.90;90.80
11246;DHT22;59870;50.106;8.580;2022-12-18T17:17:05;0.90;90.70
11246;DHT22;59870;50.106;8.580;2022-12-18T17:19:48;0.90;90.80
11246;DHT22;59870;50.106;8.580;2022-12-18T17:22:19;0.90;90.80
11246;DHT22;59870;50.106;8.580;2022-12-18T17:24:50;0.90;90.80
11246;DHT22;59870;50.106;8.580;2022-12-18T17:27:18;0.90;90.70
11246;DHT22;59870;50.106;8.580;2022-12-18T17:29:54;0.90;90.70
11246;DHT22;59870;50.106;8.580;2022-12-18T17:32:22;0.90;90.80
11246;DHT22;59870;50.106;8.580;2022-12-18T17:34:49;0.90;90.80
11246;DHT22;59870;50.106;8.580;2022-12-18T17:37:17;1.00;90.80
11246;DHT22;59870;50.106;8.580;2022-12-18T17:39:44;1.00;90.80
11246;DHT22;59870;50.106;8.580;2022-12-18T17:42:11;1.00;90.80
11246;DHT22;59870;50.106;8.580;2022-12-18T17:44:42;1.00;90.90
11246;DHT22;59870;50.106;8.580;2022-12-18T17:47:11;1.00;91.00
11246;DHT22;59870;50.106;8.580;2022-12-18T17:49:39;1.00;90.90
11246;DHT22;59870;50.106;8.580;2022-12-18T17:55:59;1.00;91.00
11246;DHT22;59870;50.106;8.580;2022-12-18T18:03:01;1.00;91.10
11246;DHT22;59870;50.106;8.580;2022-12-18T18:15:16;1.00;91.20
11246;DHT22;59870;50.106;8.580;2022-12-18T18:18:01;1.10;91.10
11246;DHT22;59870;50.106;8.580;2022-12-18T18:20:45;1.00;91.30
11246;DHT22;59870;50.106;8.580;2022-12-18T18:23:34;1.10;91.30
11246;DHT22;59870;50.106;8.580;2022-12-18T18:26:08;1.40;91.50
11246;DHT22;59870;50.106;8.580;2022-12-18T18:34:48;0.60;91.30
11246;DHT22;59870;50.106;8.580;2022-12-18T18:38:14;1.10;91.40
11246;DHT22;59870;50.106;8.580;2022-12-18T18:46:30;1.10;91.60
11246;DHT22;59870;50.106;8.580;2022-12-18T18:49:35;1.10;91.50
11246;DHT22;59870;50.106;8.580;2022-12-18T18:52:28;1.10;91.40
11246;DHT22;59870;50.106;8.580;2022-12-18T19:00:23;1.20;91.70
11246;DHT22;59870;50.106;8.580;2022-12-18T19:23:04;1.30;91.40
11246;DHT22;59870;50.106;8.580;2022-12-18T19:34:12;1.30;91.50
11246;DHT22;59870;50.106;8.580;2022-12-18T19:38:33;1.20;91.60
11246;DHT22;59870;50.106;8.580;2022-12-18T19:45:43;1.30;91.70
11246;DHT22;59870;50.106;8.580;2022-12-18T19:49:28;1.30;91.70
11246;DHT22;59870;50.106;8.580;2022-12-18T19:52:20;1.20;91.50
11246;DHT22;59870;50.106;8.580;2022-12-18T19:59:57;1.30;92.00